createdAt,value
2022-12-26T00:00:27.110Z,12.40
2022-12-26T00:03:15.783Z,12.40
2022-12-26T00:05:58.231Z,12.40
2022-12-26T00:08:46.617Z,12.40
2022-12-26T00:11:29.069Z,12.40
2022-12-26T00:14:20.578Z,12.30
2022-12-26T00:17:06.538Z,12.30
2022-12-26T00:19:55.541Z,12.30
2022-12-26T00:22:50.541Z,12.30
2022-12-26T00:25:36.579Z,12.30
2022-12-26T00:28:24.504Z,12.20
2022-12-26T00:31:07.924Z,12.20
2022-12-26T00:33:57.623Z,12.20
2022-12-26T00:36:39.529Z,12.30
2022-12-26T00:39:27.525Z,12.30
2022-12-26T00:42:09.447Z,12.30
2022-12-26T00:44:57.581Z,12.30
2022-12-26T00:47:39.514Z,12.20
2022-12-26T00:50:22.604Z,12.20
2022-12-26T00:53:12.536Z,12.30
2022-12-26T00:55:55.010Z,12.20
2022-12-26T00:58:43.556Z,12.20
2022-12-26T01:01:25.751Z,12.10
2022-12-26T01:04:14.667Z,12.20
2022-12-26T01:06:57.971Z,12.20
2022-12-26T01:09:46.570Z,12.10
2022-12-26T01:12:28.508Z,12.20
2022-12-26T01:15:17.547Z,12.10
2022-12-26T01:18:00.777Z,12.20
2022-12-26T01:20:49.686Z,12.20
2022-12-26T01:23:46.642Z,12.20
2022-12-26T01:26:28.683Z,12.20
2022-12-26T01:29:16.548Z,12.20
2022-12-26T01:31:58.500Z,12.30
2022-12-26T01:34:46.581Z,12.20
2022-12-26T01:37:28.647Z,12.20
2022-12-26T01:40:19.560Z,12.20
2022-12-26T01:43:01.418Z,12.10
2022-12-26T01:45:50.608Z,12.20
2022-12-26T01:48:34.478Z,12.10
2022-12-26T01:51:23.555Z,12.10
2022-12-26T01:54:39.566Z,12.10
2022-12-26T01:57:17.601Z,12.10
2022-12-26T02:00:06.581Z,12.10
2022-12-26T02:03:19.650Z,12.20
2022-12-26T02:06:08.549Z,12.00
2022-12-26T02:08:51.792Z,12.00
2022-12-26T02:11:44.613Z,12.10
2022-12-26T02:14:27.820Z,12.10
2022-12-26T02:17:15.596Z,12.10
2022-12-26T02:20:04.094Z,12.00
2022-12-26T02:23:26.583Z,11.90
2022-12-26T02:26:42.655Z,11.80
2022-12-26T02:30:15.800Z,11.80
2022-12-26T02:33:23.616Z,11.70
2022-12-26T02:36:27.748Z,11.70
2022-12-26T02:39:45.105Z,11.70
2022-12-26T02:42:39.556Z,11.70
2022-12-26T02:46:04.650Z,11.70
2022-12-26T02:49:11.590Z,11.80
2022-12-26T02:52:19.414Z,11.80
2022-12-26T02:55:30.621Z,11.80
2022-12-26T02:58:39.362Z,11.70
2022-12-26T03:01:54.973Z,11.70
2022-12-26T03:05:05.289Z,11.60
2022-12-26T03:08:06.664Z,11.60
2022-12-26T03:11:13.624Z,11.60
2022-12-26T03:13:58.816Z,11.50
2022-12-26T03:17:04.615Z,11.50
2022-12-26T03:20:02.725Z,11.50
2022-12-26T03:22:56.676Z,11.60
2022-12-26T03:26:05.549Z,11.60
2022-12-26T03:28:54.644Z,11.70
2022-12-26T03:31:35.783Z,11.70
2022-12-26T03:34:26.581Z,11.70
2022-12-26T03:37:47.870Z,11.60
2022-12-26T03:41:08.604Z,11.60
2022-12-26T03:44:30.602Z,11.60
2022-12-26T03:47:37.600Z,11.60
2022-12-26T03:50:55.644Z,11.60
2022-12-26T03:54:02.292Z,11.60
2022-12-26T03:57:12.643Z,11.70
2022-12-26T04:00:16.891Z,11.70
2022-12-26T04:03:24.611Z,11.60
2022-12-26T04:06:41.603Z,11.60
2022-12-26T04:09:47.666Z,11.60
2022-12-26T04:12:55.663Z,11.60
2022-12-26T04:16:01.811Z,11.60
2022-12-26T04:19:14.596Z,11.60
2022-12-26T04:22:23.533Z,11.60
2022-12-26T04:25:50.587Z,11.70
2022-12-26T04:28:56.605Z,11.70
2022-12-26T04:32:00.456Z,11.60
2022-12-26T04:35:14.624Z,11.60
2022-12-26T04:38:16.332Z,11.60
2022-12-26T04:41:25.626Z,11.70
2022-12-26T04:44:11.921Z,11.70
2022-12-26T04:47:01.646Z,11.70
2022-12-26T04:50:08.332Z,11.70
2022-12-26T04:53:08.731Z,11.70
2022-12-26T04:55:57.613Z,11.70
2022-12-26T04:58:40.970Z,11.70
2022-12-26T05:01:45.806Z,11.70
2022-12-26T05:04:57.622Z,11.70
2022-12-26T05:08:03.698Z,11.80
2022-12-26T05:10:45.916Z,11.80
2022-12-26T05:13:33.614Z,11.80
2022-12-26T05:16:40.643Z,11.80
2022-12-26T05:19:46.298Z,11.80
2022-12-26T05:22:44.637Z,11.80
2022-12-26T05:25:47.447Z,11.80
2022-12-26T05:28:51.688Z,11.80
2022-12-26T05:31:36.935Z,11.80
2022-12-26T05:34:27.625Z,11.80
2022-12-26T05:37:09.921Z,11.90
2022-12-26T05:39:58.639Z,12.00
2022-12-26T05:42:40.658Z,12.00
2022-12-26T05:45:29.645Z,12.00
2022-12-26T05:48:19.664Z,12.00
2022-12-26T05:51:05.930Z,11.90
2022-12-26T05:53:54.686Z,11.80
2022-12-26T05:56:36.867Z,11.80
2022-12-26T05:59:25.654Z,11.90
2022-12-26T06:02:12.554Z,12.00
2022-12-26T06:05:03.680Z,11.90
2022-12-26T06:07:45.898Z,11.90
2022-12-26T06:10:35.713Z,11.90
2022-12-26T06:13:24.659Z,11.90
2022-12-26T06:16:07.851Z,11.90
2022-12-26T06:18:56.634Z,11.90
2022-12-26T06:21:40.057Z,11.80
2022-12-26T06:24:28.669Z,11.70
2022-12-26T06:27:10.683Z,11.70
2022-12-26T06:30:06.032Z,11.70
2022-12-26T06:32:48.789Z,11.60
2022-12-26T06:35:37.731Z,11.60
2022-12-26T06:38:29.669Z,11.60
2022-12-26T06:41:19.469Z,11.60
2022-12-26T06:44:10.583Z,11.60
2022-12-26T06:46:56.004Z,11.70
2022-12-26T06:49:43.663Z,11.70
2022-12-26T06:52:25.871Z,11.70
2022-12-26T06:55:15.679Z,11.80
2022-12-26T06:57:59.881Z,11.70
2022-12-26T07:00:48.737Z,11.70
2022-12-26T07:06:16.841Z,11.70
2022-12-26T07:08:45.385Z,11.80
2022-12-26T07:11:15.427Z,11.80
2022-12-26T07:13:44.201Z,11.70
2022-12-26T07:16:15.375Z,11.70
2022-12-26T07:18:44.091Z,11.70
2022-12-26T07:21:15.668Z,11.70
2022-12-26T07:23:44.449Z,11.70
2022-12-26T07:26:12.696Z,11.70
2022-12-26T07:28:41.092Z,11.60
2022-12-26T07:31:09.951Z,11.60
2022-12-26T07:33:38.291Z,11.50
2022-12-26T07:36:08.187Z,11.60
2022-12-26T07:38:38.099Z,11.50
2022-12-26T07:41:20.795Z,11.50
2022-12-26T07:43:49.344Z,11.50
2022-12-26T07:46:17.789Z,11.50
2022-12-26T07:48:46.171Z,11.50
2022-12-26T07:51:15.113Z,11.50
2022-12-26T07:53:46.094Z,11.50
2022-12-26T07:56:14.372Z,11.60
2022-12-26T07:58:42.946Z,11.50
2022-12-26T08:01:11.615Z,11.50
2022-12-26T08:03:40.143Z,11.50
2022-12-26T08:06:11.710Z,11.50
2022-12-26T08:08:44.027Z,11.60
2022-12-26T08:11:19.000Z,11.60
2022-12-26T08:13:47.575Z,11.60
2022-12-26T08:16:16.950Z,11.60
2022-12-26T08:18:45.588Z,11.60
2022-12-26T08:21:14.203Z,11.60
2022-12-26T08:23:42.575Z,11.60
2022-12-26T08:26:20.454Z,11.60
2022-12-26T08:28:51.028Z,11.70
2022-12-26T08:31:21.662Z,11.70
2022-12-26T08:33:50.660Z,11.70
2022-12-26T08:36:19.257Z,11.70
2022-12-26T08:38:47.998Z,11.70
2022-12-26T08:41:18.432Z,11.70
2022-12-26T08:46:39.980Z,11.70
2022-12-26T08:49:08.299Z,11.60
2022-12-26T08:51:36.837Z,11.60
2022-12-26T08:54:06.027Z,11.50
2022-12-26T08:56:34.420Z,11.50
2022-12-26T08:59:04.396Z,11.50
2022-12-26T09:01:34.324Z,11.60
2022-12-26T09:04:06.701Z,11.60
2022-12-26T09:06:37.129Z,11.60
2022-12-26T09:09:06.780Z,11.70
2022-12-26T09:11:35.719Z,11.70
2022-12-26T09:14:06.204Z,11.60
2022-12-26T09:16:49.246Z,11.70
2022-12-26T09:19:18.798Z,11.70
2022-12-26T09:21:48.010Z,11.60
2022-12-26T09:24:18.980Z,11.70
2022-12-26T09:26:47.713Z,11.80
2022-12-26T09:29:17.552Z,11.90
2022-12-26T09:31:45.962Z,12.00
2022-12-26T09:34:14.586Z,12.00
2022-12-26T09:36:42.890Z,12.10
2022-12-26T09:39:12.885Z,12.00
2022-12-26T09:42:01.077Z,12.00
2022-12-26T09:44:43.824Z,12.00
2022-12-26T09:47:24.189Z,12.10
2022-12-26T09:49:57.459Z,12.10
2022-12-26T09:52:35.701Z,12.10
2022-12-26T09:55:12.177Z,12.10
2022-12-26T09:57:43.793Z,12.00
2022-12-26T10:00:19.702Z,12.00
2022-12-26T10:02:53.815Z,12.10
2022-12-26T10:05:23.086Z,12.20
2022-12-26T10:07:56.910Z,12.20
2022-12-26T10:10:30.839Z,12.10
2022-12-26T10:13:06.184Z,11.90
2022-12-26T10:15:44.386Z,11.80
2022-12-26T10:18:26.156Z,11.80
2022-12-26T10:21:16.142Z,11.80
2022-12-26T10:23:47.260Z,12.10
2022-12-26T10:26:20.530Z,12.10
2022-12-26T10:28:53.101Z,12.20
2022-12-26T10:31:29.494Z,12.00
2022-12-26T10:34:04.907Z,11.90
2022-12-26T10:36:40.839Z,11.90
2022-12-26T10:39:19.173Z,11.80
2022-12-26T10:41:50.822Z,11.70
2022-12-26T10:44:25.581Z,11.70
2022-12-26T10:47:14.399Z,11.60
2022-12-26T10:49:46.061Z,11.60
2022-12-26T10:52:17.164Z,11.50
2022-12-26T10:54:49.004Z,11.60
2022-12-26T10:57:17.666Z,11.60
2022-12-26T10:59:50.007Z,11.60
2022-12-26T11:02:27.318Z,11.60
2022-12-26T11:07:53.345Z,11.70
2022-12-26T11:10:24.211Z,11.70
2022-12-26T11:12:54.378Z,11.70
2022-12-26T11:15:32.088Z,11.80
2022-12-26T11:18:17.135Z,11.90
2022-12-26T11:20:46.844Z,11.90
2022-12-26T11:23:27.710Z,11.90
2022-12-26T11:25:58.036Z,11.70
2022-12-26T11:28:32.625Z,11.70
2022-12-26T11:31:02.405Z,11.60
2022-12-26T11:33:36.792Z,11.60
2022-12-26T11:36:17.828Z,11.40
2022-12-26T11:38:54.192Z,11.20
2022-12-26T11:41:40.411Z,11.30
2022-12-26T11:44:18.770Z,11.30
2022-12-26T11:46:51.449Z,11.30
2022-12-26T11:49:25.485Z,11.30
2022-12-26T11:51:59.250Z,11.30
2022-12-26T11:54:32.012Z,11.40
2022-12-26T11:57:20.423Z,11.40
2022-12-26T11:59:50.187Z,11.40
2022-12-26T12:02:29.531Z,11.20
2022-12-26T12:05:13.578Z,11.10
2022-12-26T12:08:38.203Z,11.00
2022-12-26T12:11:26.344Z,10.90
2022-12-26T12:14:49.489Z,10.90
2022-12-26T12:17:30.120Z,10.90
2022-12-26T12:20:18.635Z,10.90
2022-12-26T12:23:17.597Z,10.90
2022-12-26T12:26:01.701Z,10.90
2022-12-26T12:28:47.113Z,10.90
2022-12-26T12:31:25.959Z,10.90
2022-12-26T12:34:05.745Z,11.00
2022-12-26T12:36:44.445Z,11.00
2022-12-26T12:39:17.972Z,11.20
2022-12-26T12:42:18.727Z,11.20
2022-12-26T12:44:59.575Z,11.20
2022-12-26T12:47:39.854Z,11.30
2022-12-26T12:50:18.276Z,11.40
2022-12-26T12:52:55.914Z,11.30
2022-12-26T12:55:42.355Z,11.20
2022-12-26T12:58:28.443Z,11.00
2022-12-26T13:01:14.723Z,11.00
2022-12-26T13:03:52.606Z,11.00
2022-12-26T13:06:26.815Z,11.00
2022-12-26T13:09:00.094Z,10.80
2022-12-26T13:11:37.371Z,10.90
2022-12-26T13:14:11.383Z,10.90
2022-12-26T13:16:43.945Z,10.80
2022-12-26T13:19:20.041Z,10.80
2022-12-26T13:21:51.662Z,10.80
2022-12-26T13:24:30.313Z,10.80
2022-12-26T13:27:03.670Z,10.90
2022-12-26T13:29:40.536Z,11.00
2022-12-26T13:32:20.955Z,10.80
2022-12-26T13:34:50.119Z,10.80
2022-12-26T13:37:52.130Z,10.80
2022-12-26T13:40:25.519Z,10.80
2022-12-26T13:43:15.275Z,10.70
2022-12-26T13:45:54.943Z,10.60
2022-12-26T13:49:03.325Z,10.60
2022-12-26T13:51:58.138Z,10.40
2022-12-26T13:54:29.174Z,10.30
2022-12-26T13:57:39.973Z,10.40
2022-12-26T14:00:20.273Z,10.30
2022-12-26T14:03:20.190Z,10.20
2022-12-26T14:06:07.345Z,10.10
2022-12-26T14:08:51.380Z,10.20
2022-12-26T14:11:35.933Z,10.20
2022-12-26T14:14:17.612Z,10.20
2022-12-26T14:16:55.418Z,10.10
2022-12-26T14:19:40.041Z,10.00
2022-12-26T14:22:16.986Z,10.00
2022-12-26T14:25:00.993Z,10.10
2022-12-26T14:27:38.884Z,9.90
2022-12-26T14:30:21.883Z,9.90
2022-12-26T14:33:07.102Z,10.00
2022-12-26T14:35:41.723Z,9.90
2022-12-26T14:38:25.019Z,9.90
2022-12-26T14:41:02.931Z,9.60
2022-12-26T14:43:36.823Z,9.50
2022-12-26T14:46:31.163Z,9.40
2022-12-26T14:49:01.980Z,9.40
2022-12-26T14:51:37.763Z,9.40
2022-12-26T14:54:39.209Z,9.60
2022-12-26T14:57:44.251Z,9.60
2022-12-26T15:00:27.248Z,9.40
2022-12-26T15:03:34.755Z,9.20
2022-12-26T15:06:32.888Z,9.10
2022-12-26T15:09:22.711Z,9.10
2022-12-26T15:12:26.971Z,9.00
2022-12-26T15:15:32.370Z,8.80
2022-12-26T15:33:42.160Z,8.40
2022-12-26T15:36:23.799Z,8.30
2022-12-26T15:38:59.928Z,8.40
2022-12-26T15:41:39.414Z,8.40
2022-12-26T15:44:29.482Z,8.40
2022-12-26T15:47:11.686Z,8.40
2022-12-26T15:49:56.870Z,8.40
2022-12-26T15:52:37.467Z,8.40
2022-12-26T15:55:24.036Z,8.30
2022-12-26T15:58:01.642Z,8.30
2022-12-26T16:00:33.369Z,8.40
2022-12-26T16:03:21.824Z,8.30
2022-12-26T16:05:59.477Z,8.20
2022-12-26T16:08:50.964Z,8.20
2022-12-26T16:11:22.265Z,8.30
2022-12-26T16:13:54.448Z,8.30
2022-12-26T16:16:27.915Z,8.30
2022-12-26T16:18:56.773Z,8.30
2022-12-26T16:21:43.863Z,8.40
2022-12-26T16:24:14.722Z,8.30
2022-12-26T16:26:46.297Z,8.30
2022-12-26T16:29:19.763Z,8.30
2022-12-26T16:31:49.203Z,8.20
2022-12-26T16:34:20.613Z,8.20
2022-12-26T16:36:51.979Z,8.10
2022-12-26T16:39:24.286Z,8.10
2022-12-26T16:42:05.666Z,8.10
2022-12-26T16:44:38.817Z,8.10
2022-12-26T16:47:15.275Z,8.00
2022-12-26T16:49:45.234Z,7.90
2022-12-26T16:52:34.296Z,7.90
2022-12-26T16:55:25.001Z,7.90
2022-12-26T16:57:56.413Z,7.90
2022-12-26T17:00:26.713Z,7.90
2022-12-26T17:02:58.495Z,7.90
2022-12-26T17:05:31.006Z,7.90
2022-12-26T17:08:04.123Z,7.90
2022-12-26T17:10:35.732Z,7.90
2022-12-26T17:13:06.513Z,7.90
2022-12-26T17:15:37.513Z,7.90
2022-12-26T17:18:31.025Z,7.90
2022-12-26T17:21:18.131Z,7.90
2022-12-26T17:24:03.436Z,7.90
2022-12-26T17:26:32.563Z,7.90
2022-12-26T17:29:01.208Z,7.80
2022-12-26T17:31:35.226Z,7.80
2022-12-26T17:34:08.842Z,7.80
2022-12-26T17:39:28.606Z,7.80
2022-12-26T17:41:59.351Z,7.70
2022-12-26T17:44:39.467Z,7.70
2022-12-26T17:47:16.744Z,7.60
2022-12-26T17:49:47.292Z,7.60
2022-12-26T17:52:18.724Z,7.60
2022-12-26T17:54:50.471Z,7.70
2022-12-26T17:57:22.234Z,7.70
2022-12-26T17:59:51.793Z,7.70
2022-12-26T18:02:20.480Z,7.60
2022-12-26T18:04:50.820Z,7.70
2022-12-26T18:07:27.270Z,7.60
2022-12-26T18:10:01.311Z,7.70
2022-12-26T18:12:30.130Z,7.60
2022-12-26T18:15:02.176Z,7.60
2022-12-26T18:17:33.598Z,7.50
2022-12-26T18:20:02.399Z,7.50
2022-12-26T18:22:30.977Z,7.50
2022-12-26T18:25:01.056Z,7.50
2022-12-26T18:27:32.449Z,7.50
2022-12-26T18:30:01.914Z,7.50
2022-12-26T18:32:31.955Z,7.60
2022-12-26T18:35:00.968Z,7.60
2022-12-26T18:37:33.683Z,7.50
2022-12-26T18:40:03.607Z,7.40
2022-12-26T18:42:32.228Z,7.40
2022-12-26T18:45:02.699Z,7.40
2022-12-26T18:47:31.138Z,7.30
2022-12-26T18:49:59.739Z,7.30
2022-12-26T18:52:28.079Z,7.30
2022-12-26T18:54:56.423Z,7.30
2022-12-26T18:57:26.529Z,7.40
2022-12-26T18:59:55.102Z,7.40
2022-12-26T19:02:23.523Z,7.30
2022-12-26T19:04:52.155Z,7.50
2022-12-26T19:07:21.332Z,7.50
2022-12-26T19:09:55.048Z,7.50
2022-12-26T19:12:23.720Z,7.40
2022-12-26T19:14:54.005Z,7.40
2022-12-26T19:17:22.345Z,7.40
2022-12-26T19:19:50.885Z,7.40
2022-12-26T19:22:19.210Z,7.40
2022-12-26T19:24:48.126Z,7.40
2022-12-26T19:27:16.695Z,7.40
2022-12-26T19:29:45.056Z,7.40
2022-12-26T19:32:14.872Z,7.40
2022-12-26T19:34:43.370Z,7.30
2022-12-26T19:37:11.839Z,7.20
2022-12-26T19:39:40.133Z,7.20
2022-12-26T19:42:08.628Z,7.20
2022-12-26T19:44:37.127Z,7.20
2022-12-26T19:47:12.216Z,7.20
2022-12-26T19:49:43.309Z,7.20
2022-12-26T19:52:12.385Z,7.30
2022-12-26T19:54:40.841Z,7.30
2022-12-26T19:57:09.824Z,7.20
2022-12-26T19:59:38.191Z,7.20
2022-12-26T20:02:06.956Z,7.20
2022-12-26T20:04:35.571Z,7.20
2022-12-26T20:07:05.277Z,7.10
2022-12-26T20:09:33.748Z,7.10
2022-12-26T20:12:02.958Z,7.10
2022-12-26T20:14:32.565Z,7.10
2022-12-26T20:17:05.397Z,7.10
2022-12-26T20:19:34.661Z,7.10
2022-12-26T20:22:04.665Z,7.00
2022-12-26T20:24:33.249Z,7.00
2022-12-26T20:27:02.299Z,6.90
2022-12-26T20:29:31.223Z,7.00
2022-12-26T20:32:00.326Z,7.00
2022-12-26T20:34:29.299Z,7.10
2022-12-26T20:36:57.747Z,7.10
2022-12-26T20:39:27.677Z,7.00
2022-12-26T20:41:56.186Z,7.00
2022-12-26T20:44:25.565Z,7.00
2022-12-26T20:46:54.089Z,7.10
2022-12-26T20:49:24.063Z,7.10
2022-12-26T20:51:52.385Z,7.10
2022-12-26T20:54:20.779Z,7.10
2022-12-26T20:56:51.040Z,7.20
2022-12-26T20:59:20.198Z,7.10
2022-12-26T21:01:49.263Z,7.00
2022-12-26T21:04:19.899Z,7.00
2022-12-26T21:06:49.626Z,7.00
2022-12-26T21:09:18.225Z,6.90
2022-12-26T21:11:46.884Z,6.80
2022-12-26T21:14:20.659Z,6.80
2022-12-26T21:16:51.582Z,6.80
2022-12-26T21:19:20.736Z,6.90
2022-12-26T21:21:51.411Z,6.90
2022-12-26T21:24:25.255Z,6.90
2022-12-26T21:26:54.110Z,6.90
2022-12-26T21:29:26.994Z,7.00
2022-12-26T21:31:55.429Z,7.00
2022-12-26T21:34:26.846Z,7.00
2022-12-26T21:37:13.754Z,6.90
2022-12-26T21:39:42.668Z,6.90
2022-12-26T21:42:11.250Z,6.80
2022-12-26T21:44:40.914Z,6.80
2022-12-26T21:47:09.487Z,6.80
2022-12-26T21:49:38.077Z,6.80
2022-12-26T21:52:07.841Z,6.70
2022-12-26T21:54:53.885Z,6.70
2022-12-26T21:57:23.214Z,6.70
2022-12-26T21:59:59.626Z,6.80
2022-12-26T22:02:47.759Z,6.70
2022-12-26T22:05:17.369Z,6.70
2022-12-26T22:07:45.966Z,6.80
2022-12-26T22:10:34.898Z,6.80
2022-12-26T22:13:04.253Z,6.70
2022-12-26T22:15:51.543Z,6.80
2022-12-26T22:18:20.396Z,6.80
2022-12-26T22:20:48.951Z,6.80
2022-12-26T22:23:17.233Z,6.80
2022-12-26T22:25:52.952Z,6.80
2022-12-26T22:28:23.494Z,6.90
2022-12-26T22:30:53.806Z,6.80
2022-12-26T22:33:22.146Z,6.70
2022-12-26T22:35:50.862Z,6.70
2022-12-26T22:38:19.447Z,6.70
2022-12-26T22:40:56.172Z,6.70
2022-12-26T22:43:25.702Z,6.80
2022-12-26T22:45:55.909Z,6.90
2022-12-26T22:48:25.130Z,6.90
2022-12-26T22:50:55.876Z,6.80
2022-12-26T22:53:25.592Z,6.80
2022-12-26T22:55:58.614Z,6.80
2022-12-26T22:58:27.538Z,6.80
2022-12-26T23:00:57.797Z,6.80
2022-12-26T23:03:27.259Z,6.90
2022-12-26T23:05:58.744Z,6.90
2022-12-26T23:08:29.014Z,6.80
2022-12-26T23:10:59.044Z,6.90
2022-12-26T23:13:28.052Z,6.90
2022-12-26T23:16:06.458Z,6.80
2022-12-26T23:18:59.330Z,6.90
2022-12-26T23:21:45.204Z,6.90
2022-12-26T23:24:23.906Z,6.80
2022-12-26T23:27:19.614Z,6.80
2022-12-26T23:30:06.254Z,6.80
2022-12-26T23:32:39.219Z,6.80
2022-12-26T23:35:11.231Z,6.80
2022-12-26T23:37:44.863Z,6.80
2022-12-26T23:40:16.783Z,6.80
2022-12-26T23:42:45.234Z,6.70
2022-12-26T23:45:14.704Z,6.80
2022-12-26T23:47:45.766Z,6.80
2022-12-26T23:50:15.767Z,6.80
2022-12-26T23:52:44.561Z,6.80
2022-12-26T23:55:13.884Z,6.80
2022-12-26T23:57:42.375Z,6.80
